Time,TemperatureF,DewpointF,PressureIn,WindDirection,WindDirectionDegrees,WindSpeedMPH,WindSpeedGustMPH,Humidity,HourlyPrecipIn,Conditions,Clouds,dailyrainin,SoftwareType,DateUTC
2013-05-01 00:01:00,46.2,27.6,30.39,ESE,108,4.1,4.6,48,0.00,,---,0.00,VWS V14.01,2013-05-01 04:01:00,
2013-05-01 00:02:00,46.2,28.1,30.39,ESE,105,0.0,4.1,49,0.00,,---,0.00,VWS V14.01,2013-05-01 04:02:00,
2013-05-01 00:04:00,46.2,28.1,30.39,East,82,3.1,3.6,49,0.00,,---,0.00,VWS V14.01,2013-05-01 04:04:00,
2013-05-01 00:06:00,46.4,28.3,30.39,ESE,120,3.1,4.1,49,0.00,,---,0.00,VWS V14.01,2013-05-01 04:06:00,
2013-05-01 00:07:00,46.4,28.3,30.39,ESE,104,0.0,4.1,49,0.00,,---,0.00,VWS V14.01,2013-05-01 04:07:00,
2013-05-01 00:12:00,46.6,28.5,30.39,East,95,0.0,0.0,49,0.00,,---,0.00,VWS V14.01,2013-05-01 04:12:00,
2013-05-01 00:17:00,46.6,29.0,30.39,East,82,4.1,4.1,50,0.00,,---,0.00,VWS V14.01,2013-05-01 04:17:00,
2013-05-01 00:22:00,46.6,29.0,30.39,ESE,115,2.6,2.6,50,0.00,,---,0.00,VWS V14.01,2013-05-01 04:22:00,
2013-05-01 00:28:00,46.6,29.0,30.39,ESE,115,0.0,0.0,50,0.00,,---,0.00,VWS V14.01,2013-05-01 04:28:00,
2013-05-01 00:33:00,46.4,28.8,30.39,ESE,115,0.0,3.1,50,0.00,,---,0.00,VWS V14.01,2013-05-01 04:33:00,
2013-05-01 00:38:00,46.2,28.6,30.39,ESE,115,0.0,0.0,50,0.00,,---,0.00,VWS V14.01,2013-05-01 04:38:00,
2013-05-01 00:43:00,46.2,29.1,30.36,ESE,115,0.0,0.0,51,0.00,,---,0.00,VWS V14.01,2013-05-01 04:43:00,
2013-05-01 00:49:00,46.0,28.5,30.36,ESE,115,0.0,0.0,50,0.00,,---,0.00,VWS V14.01,2013-05-01 04:49:00,
2013-05-01 00:54:00,45.9,28.3,30.39,ESE,115,0.0,0.0,50,0.00,,---,0.00,VWS V14.01,2013-05-01 04:54:00,
2013-05-01 01:00:00,45.5,28.0,30.39,ESE,115,0.0,0.0,50,0.00,,---,0.00,VWS V14.01,2013-05-01 05:00:00,
2013-05-01 01:06:00,45.3,28.3,30.39,ESE,115,0.0,0.0,51,0.00,,---,0.00,VWS V14.01,2013-05-01 05:06:00,
2013-05-01 01:11:00,45.3,28.3,30.39,ESE,115,0.0,0.0,51,0.00,,---,0.00,VWS V14.01,2013-05-01 05:11:00,
2013-05-01 01:17:00,45.1,28.1,30.39,ESE,115,0.0,0.0,51,0.00,,---,0.00,VWS V14.01,2013-05-01 05:17:00,
2013-05-01 01:22:00,45.0,27.9,30.39,ESE,115,0.0,0.0,51,0.00,,---,0.00,VWS V14.01,2013-05-01 05:22:00,
2013-05-01 01:27:00,44.8,27.8,30.39,ESE,115,0.0,0.0,51,0.00,,---,0.00,VWS V14.01,2013-05-01 05:27:00,
2013-05-01 01:32:00,44.6,27.6,30.39,ESE,115,0.0,0.0,51,0.00,,---,0.00,VWS V14.01,2013-05-01 05:32:00,
2013-05-01 01:38:00,44.6,27.6,30.39,ESE,115,0.0,0.0,51,0.00,,---,0.00,VWS V14.01,2013-05-01 05:38:00,
2013-05-01 01:43:00,44.6,27.6,30.36,ESE,115,0.0,0.0,51,0.00,,---,0.00,VWS V14.01,2013-05-01 05:43:00,
2013-05-01 01:49:00,44.6,28.1,30.36,ESE,115,0.0,0.0,52,0.00,,---,0.00,VWS V14.01,2013-05-01 05:49:00,
2013-05-01 01:55:00,44.6,28.1,30.39,ESE,115,0.0,0.0,52,0.00,,---,0.00,VWS V14.01,2013-05-01 05:55:00,
2013-05-01 02:00:00,44.6,28.1,30.39,ESE,115,0.0,0.0,52,0.00,,---,0.00,VWS V14.01,2013-05-01 06:00:00,
2013-05-01 02:05:00,44.6,28.1,30.39,ESE,115,0.0,0.0,52,0.00,,---,0.00,VWS V14.01,2013-05-01 06:05:00,
2013-05-01 02:10:00,44.6,28.1,30.39,ESE,115,0.0,0.0,52,0.00,,---,0.00,VWS V14.01,2013-05-01 06:10:00,
2013-05-01 02:16:00,44.8,28.7,30.39,ESE,115,0.0,0.0,53,0.00,,---,0.00,VWS V14.01,2013-05-01 06:16:00,
2013-05-01 02:21:00,44.8,28.7,30.39,ESE,115,0.0,0.0,53,0.00,,---,0.00,VWS V14.01,2013-05-01 06:21:00,
2013-05-01 02:27:00,44.8,28.7,30.39,ESE,115,0.0,0.0,53,0.00,,---,0.00,VWS V14.01,2013-05-01 06:27:00,
2013-05-01 02:32:00,45.1,29.0,30.39,ESE,115,0.0,0.0,53,0.00,,---,0.00,VWS V14.01,2013-05-01 06:32:00,
2013-05-01 02:37:00,45.1,29.0,30.39,ESE,115,0.0,0.0,53,0.00,,---,0.00,VWS V14.01,2013-05-01 06:37:00,
2013-05-01 02:42:00,45.1,29.0,30.39,ESE,115,0.0,0.0,53,0.00,,---,0.00,VWS V14.01,2013-05-01 06:42:00,
2013-05-01 02:48:00,45.1,29.5,30.39,ESE,115,0.0,0.0,54,0.00,,---,0.00,VWS V14.01,2013-05-01 06:48:00,
2013-05-01 02:53:00,44.8,29.2,30.39,ESE,115,0.0,0.0,54,0.00,,---,0.00,VWS V14.01,2013-05-01 06:53:00,
2013-05-01 02:58:00,45.0,29.8,30.36,ESE,115,0.0,0.0,55,0.00,,---,0.00,VWS V14.01,2013-05-01 06:58:00,
2013-05-01 03:03:00,45.0,29.3,30.36,ESE,115,0.0,0.0,54,0.00,,---,0.00,VWS V14.01,2013-05-01 07:03:00,
2013-05-01 03:09:00,44.8,29.2,30.36,ESE,115,0.0,0.0,54,0.00,,---,0.00,VWS V14.01,2013-05-01 07:09:00,
2013-05-01 03:14:00,44.6,29.0,30.36,ESE,115,0.0,0.0,54,0.00,,---,0.00,VWS V14.01,2013-05-01 07:14:00,
2013-05-01 03:19:00,44.4,29.3,30.36,ESE,115,0.0,0.0,55,0.00,,---,0.00,VWS V14.01,2013-05-01 07:19:00,
2013-05-01 03:24:00,44.6,29.5,30.36,ESE,115,0.0,0.0,55,0.00,,---,0.00,VWS V14.01,2013-05-01 07:24:00,
2013-05-01 03:30:00,44.8,29.6,30.36,ESE,115,0.0,0.0,55,0.00,,---,0.00,VWS V14.01,2013-05-01 07:30:00,
2013-05-01 03:35:00,44.6,29.5,30.36,ESE,115,0.0,0.0,55,0.00,,---,0.00,VWS V14.01,2013-05-01 07:35:00,
2013-05-01 03:40:00,44.8,29.6,30.36,ESE,115,0.0,0.0,55,0.00,,---,0.00,VWS V14.01,2013-05-01 07:40:00,
2013-05-01 03:45:00,44.2,29.1,30.36,ESE,115,0.0,0.0,55,0.00,,---,0.00,VWS V14.01,2013-05-01 07:45:00,
2013-05-01 03:51:00,44.2,29.5,30.36,ESE,115,0.0,0.0,56,0.00,,---,0.00,VWS V14.01,2013-05-01 07:51:00,
2013-05-01 03:56:00,44.2,29.5,30.36,ESE,115,0.0,0.0,56,0.00,,---,0.00,VWS V14.01,2013-05-01 07:56:00,
2013-05-01 04:02:00,44.1,29.4,30.36,ESE,115,0.0,0.0,56,0.00,,---,0.00,VWS V14.01,2013-05-01 08:02:00,
2013-05-01 04:08:00,43.7,29.0,30.36,ESE,115,0.0,0.0,56,0.00,,---,0.00,VWS V14.01,2013-05-01 08:08:00,
2013-05-01 04:13:00,43.5,28.9,30.36,ESE,115,0.0,0.0,56,0.00,,---,0.00,VWS V14.01,2013-05-01 08:13:00,
2013-05-01 04:18:00,43.3,28.7,30.36,ESE,115,0.0,0.0,56,0.00,,---,0.00,VWS V14.01,2013-05-01 08:18:00,
2013-05-01 04:23:00,43.3,28.7,30.36,ESE,115,0.0,0.0,56,0.00,,---,0.00,VWS V14.01,2013-05-01 08:23:00,
2013-05-01 04:29:00,43.5,29.3,30.36,ESE,115,0.0,0.0,57,0.00,,---,0.00,VWS V14.01,2013-05-01 08:29:00,
2013-05-01 04:34:00,43.9,29.6,30.36,ESE,115,0.0,0.0,57,0.00,,---,0.00,VWS V14.01,2013-05-01 08:34:00,
2013-05-01 04:40:00,44.2,30.4,30.36,ESE,115,0.0,0.0,58,0.00,,---,0.00,VWS V14.01,2013-05-01 08:40:00,
2013-05-01 04:45:00,44.4,30.6,30.36,ESE,115,0.0,0.0,58,0.00,,---,0.00,VWS V14.01,2013-05-01 08:45:00,
2013-05-01 04:51:00,44.8,30.9,30.36,ESE,115,0.0,0.0,58,0.00,,---,0.00,VWS V14.01,2013-05-01 08:51:00,
2013-05-01 04:56:00,45.1,31.7,30.36,ESE,115,0.0,0.0,59,0.00,,---,0.00,VWS V14.01,2013-05-01 08:56:00,
2013-05-01 05:02:00,45.1,31.7,30.36,ESE,115,0.0,3.1,59,0.00,,---,0.00,VWS V14.01,2013-05-01 09:02:00,
2013-05-01 05:08:00,45.1,32.1,30.36,ESE,115,0.0,0.0,60,0.00,,---,0.00,VWS V14.01,2013-05-01 09:08:00,
2013-05-01 05:13:00,45.3,32.7,30.39,ESE,115,0.0,0.0,61,0.00,,---,0.00,VWS V14.01,2013-05-01 09:13:00,
2013-05-01 05:18:00,45.5,32.8,30.39,NNE,22,0.0,3.6,61,0.00,,---,0.00,VWS V14.01,2013-05-01 09:18:00,
2013-05-01 05:23:00,45.5,32.8,30.39,North,1,0.0,0.0,61,0.00,,---,0.00,VWS V14.01,2013-05-01 09:23:00,
2013-05-01 05:29:00,45.9,34.0,30.39,North,357,0.0,3.1,63,0.00,,---,0.00,VWS V14.01,2013-05-01 09:29:00,
2013-05-01 05:34:00,46.2,34.3,30.39,North,357,0.0,2.6,63,0.00,,---,0.00,VWS V14.01,2013-05-01 09:34:00,
2013-05-01 05:39:00,46.2,34.3,30.39,NNE,29,3.1,3.1,63,0.00,,---,0.00,VWS V14.01,2013-05-01 09:39:00,
2013-05-01 05:44:00,46.6,34.7,30.39,North,350,2.6,3.1,63,0.00,,---,0.00,VWS V14.01,2013-05-01 09:44:00,
2013-05-01 05:50:00,47.1,35.6,30.39,NNE,32,3.1,3.1,64,0.00,,---,0.00,VWS V14.01,2013-05-01 09:50:00,
2013-05-01 05:55:00,47.1,35.6,30.39,North,353,0.0,4.1,64,0.00,,---,0.00,VWS V14.01,2013-05-01 09:55:00,
2013-05-01 06:00:00,47.5,37.1,30.39,NE,55,4.1,6.7,67,0.00,,---,0.00,VWS V14.01,2013-05-01 10:00:00,
2013-05-01 06:05:00,47.8,37.8,30.39,NE,52,3.6,4.1,68,0.00,,---,0.00,VWS V14.01,2013-05-01 10:05:00,
2013-05-01 06:11:00,48.0,38.0,30.39,North,11,0.0,3.1,68,0.00,,---,0.00,VWS V14.01,2013-05-01 10:11:00,
2013-05-01 06:16:00,48.2,38.2,30.39,North,357,0.0,2.6,68,0.00,,---,0.00,VWS V14.01,2013-05-01 10:16:00,
2013-05-01 06:22:00,48.4,38.3,30.39,NNW,333,5.1,5.1,68,0.00,,---,0.00,VWS V14.01,2013-05-01 10:22:00,
2013-05-01 06:28:00,48.4,38.7,30.42,NW,322,3.6,4.1,69,0.00,,---,0.00,VWS V14.01,2013-05-01 10:28:00,
2013-05-01 06:33:00,48.6,38.9,30.42,NNW,337,3.1,4.1,69,0.00,,---,0.00,VWS V14.01,2013-05-01 10:33:00,
2013-05-01 06:38:00,48.7,39.0,30.42,North,2,0.0,2.6,69,0.00,,---,0.00,VWS V14.01,2013-05-01 10:38:00,
2013-05-01 06:43:00,48.7,39.0,30.42,NNW,341,0.0,3.1,69,0.00,,---,0.00,VWS V14.01,2013-05-01 10:43:00,
2013-05-01 06:49:00,49.1,39.8,30.42,North,2,3.1,3.1,70,0.00,,---,0.00,VWS V14.01,2013-05-01 10:49:00,
2013-05-01 06:54:00,49.3,39.9,30.42,NNW,338,0.0,2.6,70,0.00,,---,0.00,VWS V14.01,2013-05-01 10:54:00,
2013-05-01 07:00:00,49.5,40.1,30.42,NNE,31,4.1,4.1,70,0.00,,---,0.00,VWS V14.01,2013-05-01 11:00:00,
2013-05-01 07:05:00,49.6,40.6,30.42,NNE,16,0.0,3.1,71,0.00,,---,0.00,VWS V14.01,2013-05-01 11:05:00,
2013-05-01 07:11:00,49.8,40.8,30.42,NNE,21,3.1,3.6,71,0.00,,---,0.00,VWS V14.01,2013-05-01 11:11:00,
2013-05-01 07:16:00,50.0,41.0,30.42,North,357,4.1,4.6,71,0.00,,---,0.00,VWS V14.01,2013-05-01 11:16:00,
2013-05-01 07:22:00,50.2,41.2,30.42,NNW,337,0.0,0.0,71,0.00,,---,0.00,VWS V14.01,2013-05-01 11:22:00,
2013-05-01 07:28:00,50.5,41.5,30.45,NW,320,3.1,4.6,71,0.00,,---,0.00,VWS V14.01,2013-05-01 11:28:00,
2013-05-01 07:33:00,50.5,41.5,30.45,NNE,15,0.0,0.0,71,0.00,,---,0.00,VWS V14.01,2013-05-01 11:33:00,
2013-05-01 07:39:00,50.9,42.2,30.47,NNW,340,0.0,3.1,72,0.00,,---,0.00,VWS V14.01,2013-05-01 11:39:00,
2013-05-01 07:45:00,51.1,42.4,30.47,NNW,340,3.1,4.6,72,0.00,,---,0.00,VWS V14.01,2013-05-01 11:45:00,
2013-05-01 07:50:00,51.3,42.5,30.47,North,0,3.1,5.7,72,0.00,,---,0.00,VWS V14.01,2013-05-01 11:50:00,
2013-05-01 07:56:00,51.6,42.9,30.45,North,357,3.6,4.6,72,0.00,,---,0.00,VWS V14.01,2013-05-01 11:56:00,
2013-05-01 08:01:00,51.8,43.1,30.45,NNE,30,0.0,7.2,72,0.00,,---,0.00,VWS V14.01,2013-05-01 12:01:00,
2013-05-01 08:06:00,52.2,43.4,30.45,North,357,3.1,6.2,72,0.00,,---,0.00,VWS V14.01,2013-05-01 12:06:00,
2013-05-01 08:11:00,52.5,43.8,30.47,NNE,30,6.2,6.7,72,0.00,,---,0.00,VWS V14.01,2013-05-01 12:11:00,
2013-05-01 08:17:00,52.3,42.9,30.47,NE,38,3.1,3.6,70,0.00,,---,0.00,VWS V14.01,2013-05-01 12:17:00,
2013-05-01 08:22:00,52.7,42.8,30.47,NW,325,7.2,7.2,69,0.00,,---,0.00,VWS V14.01,2013-05-01 12:22:00,
2013-05-01 08:28:00,53.1,42.4,30.45,NNE,26,6.2,6.2,67,0.00,,---,0.00,VWS V14.01,2013-05-01 12:28:00,
2013-05-01 08:34:00,53.1,41.2,30.45,North,349,6.2,6.7,64,0.00,,---,0.00,VWS V14.01,2013-05-01 12:34:00,
2013-05-01 08:39:00,53.1,38.7,30.47,West,269,3.6,3.6,58,0.00,,---,0.00,VWS V14.01,2013-05-01 12:39:00,
2013-05-01 08:44:00,53.2,37.5,30.47,North,353,4.1,6.2,55,0.00,,---,0.00,VWS V14.01,2013-05-01 12:44:00,
2013-05-01 08:49:00,53.4,36.7,30.47,NNE,13,5.7,7.2,53,0.00,,---,0.00,VWS V14.01,2013-05-01 12:49:00,
2013-05-01 08:55:00,53.6,35.4,30.47,NNW,336,3.6,7.2,50,0.00,,---,0.00,VWS V14.01,2013-05-01 12:55:00,
2013-05-01 09:01:00,54.0,35.2,30.47,North,6,4.1,7.2,49,0.00,,---,0.00,VWS V14.01,2013-05-01 13:01:00,
2013-05-01 09:07:00,54.3,33.5,30.47,NNW,335,0.0,3.6,45,0.00,,---,0.00,VWS V14.01,2013-05-01 13:07:00,
2013-05-01 09:13:00,54.3,32.9,30.47,North,2,3.6,6.2,44,0.00,,---,0.00,VWS V14.01,2013-05-01 13:13:00,
2013-05-01 09:18:00,54.1,31.6,30.47,North,353,6.2,7.2,42,0.00,,---,0.00,VWS V14.01,2013-05-01 13:18:00,
2013-05-01 09:24:00,54.5,31.9,30.47,North,357,3.6,4.1,42,0.00,,---,0.00,VWS V14.01,2013-05-01 13:24:00,
2013-05-01 09:29:00,55.0,32.4,30.47,NE,44,0.0,3.1,42,0.00,,---,0.00,VWS V14.01,2013-05-01 13:29:00,
2013-05-01 09:34:00,55.0,31.8,30.47,NE,46,3.1,5.1,41,0.00,,---,0.00,VWS V14.01,2013-05-01 13:34:00,
2013-05-01 09:39:00,54.9,31.0,30.50,East,97,0.0,6.2,40,0.00,,---,0.00,VWS V14.01,2013-05-01 13:39:00,
2013-05-01 09:45:00,55.8,32.4,30.50,ESE,109,0.0,3.6,41,0.00,,---,0.00,VWS V14.01,2013-05-01 13:45:00,
2013-05-01 09:51:00,56.3,32.9,30.50,North,5,3.6,3.6,41,0.00,,---,0.00,VWS V14.01,2013-05-01 13:51:00,
2013-05-01 09:56:00,56.3,32.3,30.47,NE,54,2.6,6.2,40,0.00,,---,0.00,VWS V14.01,2013-05-01 13:56:00,
2013-05-01 10:02:00,56.3,31.7,30.47,ENE,69,3.6,4.1,39,0.00,,---,0.00,VWS V14.01,2013-05-01 14:02:00,
2013-05-01 10:07:00,56.3,31.0,30.47,North,353,4.1,6.2,38,0.00,,---,0.00,VWS V14.01,2013-05-01 14:07:00,
2013-05-01 10:13:00,55.6,30.4,30.47,North,353,3.1,4.1,38,0.00,,---,0.00,VWS V14.01,2013-05-01 14:13:00,
2013-05-01 10:19:00,55.6,31.0,30.47,ESE,102,4.6,4.6,39,0.00,,---,0.00,VWS V14.01,2013-05-01 14:19:00,
2013-05-01 10:24:00,55.8,31.2,30.50,NE,45,5.7,5.7,39,0.00,,---,0.00,VWS V14.01,2013-05-01 14:24:00,
2013-05-01 10:30:00,55.6,31.0,30.50,NNE,23,3.1,7.2,39,0.00,,---,0.00,VWS V14.01,2013-05-01 14:30:00,
2013-05-01 10:35:00,55.8,30.6,30.50,NNE,27,2.6,7.7,38,0.00,,---,0.00,VWS V14.01,2013-05-01 14:35:00,
2013-05-01 10:40:00,55.8,31.2,30.50,NNE,21,0.0,0.0,39,0.00,,---,0.00,VWS V14.01,2013-05-01 14:40:00,
2013-05-01 10:45:00,55.8,30.6,30.50,NE,39,0.0,0.0,38,0.00,,---,0.00,VWS V14.01,2013-05-01 14:45:00,
2013-05-01 10:51:00,55.9,31.4,30.50,North,6,0.0,0.0,39,0.00,,---,0.00,VWS V14.01,2013-05-01 14:51:00,
2013-05-01 10:56:00,56.1,30.9,30.50,NNE,23,0.0,0.0,38,0.00,,---,0.00,VWS V14.01,2013-05-01 14:56:00,
2013-05-01 11:02:00,57.0,31.7,30.50,NNE,20,0.0,0.0,38,0.00,,---,0.00,VWS V14.01,2013-05-01 15:02:00,
2013-05-01 11:08:00,57.9,32.5,30.50,North,357,0.0,0.0,38,0.00,,---,0.00,VWS V14.01,2013-05-01 15:08:00,
2013-05-01 11:13:00,57.6,29.4,30.50,East,93,0.0,0.0,34,0.00,,---,0.00,VWS V14.01,2013-05-01 15:13:00,
2013-05-01 11:19:00,56.8,28.1,30.50,NNW,328,0.0,0.0,33,0.00,,---,0.00,VWS V14.01,2013-05-01 15:19:00,
2013-05-01 11:24:00,56.5,27.8,30.50,North,353,0.0,0.0,33,0.00,,---,0.00,VWS V14.01,2013-05-01 15:24:00,
2013-05-01 11:30:00,57.2,30.5,30.50,North,8,0.0,0.0,36,0.00,,---,0.00,VWS V14.01,2013-05-01 15:30:00,
2013-05-01 11:35:00,57.0,29.0,30.50,NNE,17,0.0,0.0,34,0.00,,---,0.00,VWS V14.01,2013-05-01 15:35:00,
2013-05-01 11:41:00,57.2,28.4,30.50,NNW,330,0.0,0.0,33,0.00,,---,0.00,VWS V14.01,2013-05-01 15:41:00,
2013-05-01 11:47:00,55.6,27.0,30.50,NNE,32,0.0,0.0,33,0.00,,---,0.00,VWS V14.01,2013-05-01 15:47:00,
2013-05-01 11:52:00,56.7,29.3,30.50,NE,34,0.0,0.0,35,0.00,,---,0.00,VWS V14.01,2013-05-01 15:52:00,
2013-05-01 11:58:00,56.1,29.5,30.50,East,82,0.0,0.0,36,0.00,,---,0.00,VWS V14.01,2013-05-01 15:58:00,
2013-05-01 12:04:00,56.7,29.3,30.50,East,93,0.0,0.0,35,0.00,,---,0.00,VWS V14.01,2013-05-01 16:04:00,
2013-05-01 12:09:00,56.7,29.3,30.50,North,353,0.0,0.0,35,0.00,,---,0.00,VWS V14.01,2013-05-01 16:09:00,
2013-05-01 12:15:00,56.5,29.9,30.50,NNE,31,0.0,0.0,36,0.00,,---,0.00,VWS V14.01,2013-05-01 16:15:00,
2013-05-01 12:20:00,57.2,29.8,30.50,NE,51,0.0,0.0,35,0.00,,---,0.00,VWS V14.01,2013-05-01 16:20:00,
2013-05-01 12:26:00,56.8,25.8,30.50,ENE,62,0.0,0.0,30,0.00,,---,0.00,VWS V14.01,2013-05-01 16:26:00,
2013-05-01 12:31:00,57.6,26.4,30.50,North,357,0.0,0.0,30,0.00,,---,0.00,VWS V14.01,2013-05-01 16:31:00,
2013-05-01 12:37:00,57.2,26.1,30.50,NE,36,0.0,0.0,30,0.00,,---,0.00,VWS V14.01,2013-05-01 16:37:00,
2013-05-01 12:43:00,56.8,25.8,30.50,NNE,30,0.0,0.0,30,0.00,,---,0.00,VWS V14.01,2013-05-01 16:43:00,
2013-05-01 12:48:00,56.8,26.5,30.50,NNE,25,0.0,0.0,31,0.00,,---,0.00,VWS V14.01,2013-05-01 16:48:00,
2013-05-01 12:54:00,56.8,27.3,30.50,NNE,30,0.0,0.0,32,0.00,,---,0.00,VWS V14.01,2013-05-01 16:54:00,
2013-05-01 13:00:00,57.9,29.0,30.50,East,79,0.0,0.0,33,0.00,,---,0.00,VWS V14.01,2013-05-01 17:00:00,
2013-05-01 13:05:00,58.1,27.6,30.50,East,90,0.0,0.0,31,0.00,,---,0.00,VWS V14.01,2013-05-01 17:05:00,
2013-05-01 13:10:00,57.6,26.4,30.50,North,357,0.0,0.0,30,0.00,,---,0.00,VWS V14.01,2013-05-01 17:10:00,
2013-05-01 13:15:00,57.6,25.6,30.50,ESE,122,0.0,0.0,29,0.00,,---,0.00,VWS V14.01,2013-05-01 17:15:00,
2013-05-01 13:21:00,58.5,28.0,30.50,East,84,0.0,0.0,31,0.00,,---,0.00,VWS V14.01,2013-05-01 17:21:00,
2013-05-01 13:26:00,58.5,27.2,30.50,NE,35,0.0,0.0,30,0.00,,---,0.00,VWS V14.01,2013-05-01 17:26:00,
2013-05-01 13:32:00,57.2,25.2,30.50,NNE,15,0.0,0.0,29,0.00,,---,0.00,VWS V14.01,2013-05-01 17:32:00,
2013-05-01 13:37:00,57.6,25.6,30.50,ENE,70,0.0,0.0,29,0.00,,---,0.00,VWS V14.01,2013-05-01 17:37:00,
2013-05-01 13:43:00,57.2,26.1,30.50,SE,136,0.0,0.0,30,0.00,,---,0.00,VWS V14.01,2013-05-01 17:43:00,
2013-05-01 13:48:00,57.4,26.2,30.50,East,95,0.0,0.0,30,0.00,,---,0.00,VWS V14.01,2013-05-01 17:48:00,
2013-05-01 13:54:00,58.1,27.6,30.50,North,0,0.0,0.0,31,0.00,,---,0.00,VWS V14.01,2013-05-01 17:54:00,
2013-05-01 14:00:00,58.3,26.2,30.50,ENE,71,0.0,0.0,29,0.00,,---,0.00,VWS V14.01,2013-05-01 18:00:00,
2013-05-01 14:05:00,57.7,26.5,30.50,East,85,0.0,0.0,30,0.00,,---,0.00,VWS V14.01,2013-05-01 18:05:00,
2013-05-01 14:11:00,58.1,26.9,30.50,NNE,32,0.0,0.0,30,0.00,,---,0.00,VWS V14.01,2013-05-01 18:11:00,
2013-05-01 14:17:00,57.9,25.9,30.50,ESE,115,0.0,0.0,29,0.00,,---,0.00,VWS V14.01,2013-05-01 18:17:00,
2013-05-01 14:22:00,58.1,26.9,30.50,NE,52,0.0,0.0,30,0.00,,---,0.00,VWS V14.01,2013-05-01 18:22:00,
2013-05-01 14:28:00,58.1,26.9,30.50,East,100,0.0,0.0,30,0.00,,---,0.00,VWS V14.01,2013-05-01 18:28:00,
2013-05-01 14:33:00,58.6,27.3,30.50,NNE,19,0.0,0.0,30,0.00,,---,0.00,VWS V14.01,2013-05-01 18:33:00,
2013-05-01 14:39:00,58.6,26.5,30.50,ESE,120,0.0,0.0,29,0.00,,---,0.00,VWS V14.01,2013-05-01 18:39:00,
2013-05-01 14:45:00,58.8,27.5,30.50,East,79,0.0,0.0,30,0.00,,---,0.00,VWS V14.01,2013-05-01 18:45:00,
2013-05-01 14:50:00,57.9,25.9,30.50,ESE,119,0.0,0.0,29,0.00,,---,0.00,VWS V14.01,2013-05-01 18:50:00,
2013-05-01 14:56:00,58.3,27.0,30.50,SE,136,0.0,0.0,30,0.00,,---,0.00,VWS V14.01,2013-05-01 18:56:00,
2013-05-01 15:01:00,58.3,27.0,30.50,East,99,0.0,0.0,30,0.00,,---,0.00,VWS V14.01,2013-05-01 19:01:00,
2013-05-01 15:07:00,58.6,27.3,30.50,ESE,105,0.0,0.0,30,0.00,,---,0.00,VWS V14.01,2013-05-01 19:07:00,
2013-05-01 15:13:00,58.5,26.3,30.50,ESE,105,0.0,0.0,29,0.00,,---,0.00,VWS V14.01,2013-05-01 19:13:00,
2013-05-01 15:18:00,58.5,26.3,30.50,ESE,117,0.0,0.0,29,0.00,,---,0.00,VWS V14.01,2013-05-01 19:18:00,
2013-05-01 15:24:00,58.3,27.0,30.50,East,89,0.0,0.0,30,0.00,,---,0.00,VWS V14.01,2013-05-01 19:24:00,
2013-05-01 15:29:00,57.9,26.7,30.50,East,101,0.0,0.0,30,0.00,,---,0.00,VWS V14.01,2013-05-01 19:29:00,
2013-05-01 15:35:00,58.5,27.2,30.50,North,4,0.0,0.0,30,0.00,,---,0.00,VWS V14.01,2013-05-01 19:35:00,
2013-05-01 15:41:00,58.1,26.9,30.50,East,83,0.0,0.0,30,0.00,,---,0.00,VWS V14.01,2013-05-01 19:41:00,
2013-05-01 15:46:00,57.9,26.7,30.50,ESE,105,0.0,0.0,30,0.00,,---,0.00,VWS V14.01,2013-05-01 19:46:00,
2013-05-01 15:52:00,57.7,26.5,30.50,SE,130,0.0,0.0,30,0.00,,---,0.00,VWS V14.01,2013-05-01 19:52:00,
2013-05-01 15:57:00,57.9,27.5,30.50,South,182,0.0,0.0,31,0.00,,---,0.00,VWS V14.01,2013-05-01 19:57:00,
2013-05-01 16:03:00,57.6,26.4,30.50,North,357,0.0,0.0,30,0.00,,---,0.00,VWS V14.01,2013-05-01 20:03:00,
2013-05-01 16:08:00,57.4,27.0,30.50,North,357,0.0,0.0,31,0.00,,---,0.00,VWS V14.01,2013-05-01 20:08:00,
2013-05-01 16:14:00,56.8,25.8,30.47,ESE,108,0.0,0.0,30,0.00,,---,0.00,VWS V14.01,2013-05-01 20:14:00,
2013-05-01 16:20:00,57.0,26.7,30.47,NNE,30,0.0,0.0,31,0.00,,---,0.00,VWS V14.01,2013-05-01 20:20:00,
2013-05-01 16:25:00,56.8,26.5,30.47,NW,316,0.0,0.0,31,0.00,,---,0.00,VWS V14.01,2013-05-01 20:25:00,
2013-05-01 16:31:00,56.7,27.2,30.47,ESE,112,0.0,0.0,32,0.00,,---,0.00,VWS V14.01,2013-05-01 20:31:00,
2013-05-01 16:37:00,56.3,26.8,30.47,ENE,68,0.0,0.0,32,0.00,,---,0.00,VWS V14.01,2013-05-01 20:37:00,
2013-05-01 16:42:00,56.1,26.7,30.47,NE,35,0.0,0.0,32,0.00,,---,0.00,VWS V14.01,2013-05-01 20:42:00,
2013-05-01 16:48:00,55.9,27.3,30.47,North,357,0.0,0.0,33,0.00,,---,0.00,VWS V14.01,2013-05-01 20:48:00,
2013-05-01 16:53:00,55.6,27.0,30.47,East,92,0.0,0.0,33,0.00,,---,0.00,VWS V14.01,2013-05-01 20:53:00,
2013-05-01 16:59:00,55.2,27.4,30.47,North,350,0.0,0.0,34,0.00,,---,0.00,VWS V14.01,2013-05-01 20:59:00,
2013-05-01 17:05:00,54.9,27.8,30.47,NNE,17,0.0,0.0,35,0.00,,---,0.00,VWS V14.01,2013-05-01 21:05:00,
2013-05-01 17:10:00,55.0,29.3,30.47,ESE,106,0.0,0.0,37,0.00,,---,0.00,VWS V14.01,2013-05-01 21:10:00,
2013-05-01 17:16:00,55.4,29.6,30.47,ESE,108,0.0,0.0,37,0.00,,---,0.00,VWS V14.01,2013-05-01 21:16:00,
2013-05-01 17:21:00,55.6,29.7,30.47,East,98,0.0,0.0,37,0.00,,---,0.00,VWS V14.01,2013-05-01 21:21:00,
2013-05-01 17:27:00,55.4,28.9,30.47,ESE,110,0.0,0.0,36,0.00,,---,0.00,VWS V14.01,2013-05-01 21:27:00,
2013-05-01 17:32:00,55.6,29.7,30.47,East,94,0.0,0.0,37,0.00,,---,0.00,VWS V14.01,2013-05-01 21:32:00,
2013-05-01 17:38:00,55.6,29.7,30.47,NNE,26,0.0,0.0,37,0.00,,---,0.00,VWS V14.01,2013-05-01 21:38:00,
2013-05-01 17:43:00,55.2,28.8,30.47,East,90,0.0,0.0,36,0.00,,---,0.00,VWS V14.01,2013-05-01 21:43:00,
2013-05-01 17:48:00,54.7,28.3,30.47,East,83,0.0,0.0,36,0.00,,---,0.00,VWS V14.01,2013-05-01 21:48:00,
2013-05-01 17:54:00,54.5,28.8,30.47,East,79,0.0,0.0,37,0.00,,---,0.00,VWS V14.01,2013-05-01 21:54:00,
2013-05-01 17:59:00,54.0,29.0,30.47,ESE,106,0.0,0.0,38,0.00,,---,0.00,VWS V14.01,2013-05-01 21:59:00,
2013-05-01 18:05:00,53.4,29.1,30.47,ESE,107,0.0,0.0,39,0.00,,---,0.00,VWS V14.01,2013-05-01 22:05:00,
2013-05-01 18:10:00,53.2,28.9,30.47,East,90,0.0,0.0,39,0.00,,---,0.00,VWS V14.01,2013-05-01 22:10:00,
2013-05-01 18:16:00,52.9,28.6,30.47,East,86,0.0,0.0,39,0.00,,---,0.00,VWS V14.01,2013-05-01 22:16:00,
2013-05-01 18:22:00,52.5,28.3,30.47,East,82,0.0,0.0,39,0.00,,---,0.00,VWS V14.01,2013-05-01 22:22:00,
2013-05-01 18:27:00,52.2,28.6,30.47,East,85,0.0,0.0,40,0.00,,---,0.00,VWS V14.01,2013-05-01 22:27:00,
2013-05-01 18:33:00,51.8,28.3,30.47,East,91,0.0,0.0,40,0.00,,---,0.00,VWS V14.01,2013-05-01 22:33:00,
2013-05-01 18:38:00,51.6,28.7,30.47,ESE,120,0.0,0.0,41,0.00,,---,0.00,VWS V14.01,2013-05-01 22:38:00,
2013-05-01 18:44:00,51.4,28.5,30.47,ENE,73,0.0,0.0,41,0.00,,---,0.00,VWS V14.01,2013-05-01 22:44:00,
2013-05-01 18:50:00,51.4,28.5,30.47,ESE,104,0.0,0.0,41,0.00,,---,0.00,VWS V14.01,2013-05-01 22:50:00,
2013-05-01 18:55:00,51.3,29.0,30.47,East,95,0.0,0.0,42,0.00,,---,0.00,VWS V14.01,2013-05-01 22:55:00,
2013-05-01 19:01:00,51.1,28.8,30.47,East,92,0.0,0.0,42,0.00,,---,0.00,VWS V14.01,2013-05-01 23:01:00,
2013-05-01 19:06:00,50.9,28.6,30.47,East,81,0.0,0.0,42,0.00,,---,0.00,VWS V14.01,2013-05-01 23:06:00,
2013-05-01 19:12:00,50.5,28.9,30.47,ESE,106,0.0,0.0,43,0.00,,---,0.00,VWS V14.01,2013-05-01 23:12:00,
2013-05-01 19:18:00,50.4,28.7,30.47,ESE,120,0.0,0.0,43,0.00,,---,0.00,VWS V14.01,2013-05-01 23:18:00,
2013-05-01 19:23:00,50.0,28.4,30.47,ESE,120,0.0,2.6,43,0.00,,---,0.00,VWS V14.01,2013-05-01 23:23:00,
2013-05-01 19:29:00,49.6,28.1,30.47,ESE,120,2.6,2.6,43,0.00,,---,0.00,VWS V14.01,2013-05-01 23:29:00,
2013-05-01 19:34:00,49.3,27.8,30.47,ESE,120,0.0,0.0,43,0.00,,---,0.00,VWS V14.01,2013-05-01 23:34:00,
2013-05-01 19:40:00,48.9,27.4,30.50,ESE,120,0.0,0.0,43,0.00,,---,0.00,VWS V14.01,2013-05-01 23:40:00,
2013-05-01 19:46:00,48.6,27.1,30.50,ESE,118,0.0,2.6,43,0.00,,---,0.00,VWS V14.01,2013-05-01 23:46:00,
2013-05-01 19:51:00,48.4,26.9,30.50,ESE,105,0.0,0.0,43,0.00,,---,0.00,VWS V14.01,2013-05-01 23:51:00,
2013-05-01 19:56:00,48.2,27.3,30.47,SE,140,0.0,0.0,44,0.00,,---,0.00,VWS V14.01,2013-05-01 23:56:00,
2013-05-01 20:01:00,48.0,27.2,30.47,ESE,120,0.0,0.0,44,0.00,,---,0.00,VWS V14.01,2013-05-02 00:01:00,
2013-05-01 20:07:00,47.7,26.8,30.47,ESE,120,0.0,0.0,44,0.00,,---,0.00,VWS V14.01,2013-05-02 00:07:00,
2013-05-01 20:12:00,47.7,26.8,30.47,SE,127,0.0,0.0,44,0.00,,---,0.00,VWS V14.01,2013-05-02 00:12:00,
2013-05-01 20:18:00,47.3,26.5,30.47,SE,127,0.0,0.0,44,0.00,,---,0.00,VWS V14.01,2013-05-02 00:18:00,
2013-05-01 20:23:00,47.3,26.5,30.47,ESE,117,0.0,0.0,44,0.00,,---,0.00,VWS V14.01,2013-05-02 00:23:00,
2013-05-01 20:29:00,47.3,27.0,30.47,ESE,118,0.0,0.0,45,0.00,,---,0.00,VWS V14.01,2013-05-02 00:29:00,
2013-05-01 20:34:00,47.3,27.0,30.47,ESE,118,0.0,0.0,45,0.00,,---,0.00,VWS V14.01,2013-05-02 00:34:00,
2013-05-01 20:40:00,47.1,26.9,30.47,ESE,118,0.0,0.0,45,0.00,,---,0.00,VWS V14.01,2013-05-02 00:40:00,
2013-05-01 20:45:00,46.9,26.7,30.47,ESE,118,0.0,0.0,45,0.00,,---,0.00,VWS V14.01,2013-05-02 00:45:00,
2013-05-01 20:50:00,46.8,26.6,30.47,ESE,118,0.0,0.0,45,0.00,,---,0.00,VWS V14.01,2013-05-02 00:50:00,
2013-05-01 20:56:00,46.4,26.2,30.47,ESE,118,0.0,0.0,45,0.00,,---,0.00,VWS V14.01,2013-05-02 00:56:00,
2013-05-01 21:01:00,46.0,25.9,30.47,ESE,118,0.0,0.0,45,0.00,,---,0.00,VWS V14.01,2013-05-02 01:01:00,
2013-05-01 21:06:00,45.9,25.7,30.47,ESE,118,0.0,0.0,45,0.00,,---,0.00,VWS V14.01,2013-05-02 01:06:00,
2013-05-01 21:11:00,45.5,25.9,30.47,ESE,118,0.0,0.0,46,0.00,,---,0.00,VWS V14.01,2013-05-02 01:11:00,
2013-05-01 21:17:00,45.1,25.6,30.47,ESE,118,0.0,0.0,46,0.00,,---,0.00,VWS V14.01,2013-05-02 01:17:00,
2013-05-01 21:23:00,45.1,25.6,30.47,ESE,118,0.0,0.0,46,0.00,,---,0.00,VWS V14.01,2013-05-02 01:23:00,
2013-05-01 21:29:00,45.1,25.6,30.47,ESE,118,0.0,0.0,46,0.00,,---,0.00,VWS V14.01,2013-05-02 01:29:00,
2013-05-01 21:35:00,45.5,26.5,30.47,ESE,118,0.0,0.0,47,0.00,,---,0.00,VWS V14.01,2013-05-02 01:35:00,
2013-05-01 21:40:00,45.5,26.5,30.47,ESE,118,0.0,0.0,47,0.00,,---,0.00,VWS V14.01,2013-05-02 01:40:00,
2013-05-01 21:46:00,45.5,26.5,30.47,ESE,118,0.0,0.0,47,0.00,,---,0.00,VWS V14.01,2013-05-02 01:46:00,
2013-05-01 21:51:00,45.5,26.5,30.47,ESE,118,0.0,0.0,47,0.00,,---,0.00,VWS V14.01,2013-05-02 01:51:00,
2013-05-01 21:57:00,45.3,26.8,30.47,ESE,118,0.0,0.0,48,0.00,,---,0.00,VWS V14.01,2013-05-02 01:57:00,
2013-05-01 22:02:00,45.1,26.6,30.47,ESE,118,0.0,0.0,48,0.00,,---,0.00,VWS V14.01,2013-05-02 02:02:00,
2013-05-01 22:08:00,45.1,26.6,30.47,ESE,118,0.0,0.0,48,0.00,,---,0.00,VWS V14.01,2013-05-02 02:08:00,
2013-05-01 22:14:00,44.8,26.3,30.47,ESE,118,0.0,0.0,48,0.00,,---,0.00,VWS V14.01,2013-05-02 02:14:00,
2013-05-01 22:20:00,44.8,26.8,30.47,ESE,118,0.0,0.0,49,0.00,,---,0.00,VWS V14.01,2013-05-02 02:20:00,
2013-05-01 22:25:00,45.0,27.0,30.47,ESE,118,0.0,0.0,49,0.00,,---,0.00,VWS V14.01,2013-05-02 02:25:00,
2013-05-01 22:31:00,45.1,27.6,30.47,ESE,118,0.0,0.0,50,0.00,,---,0.00,VWS V14.01,2013-05-02 02:31:00,
2013-05-01 22:36:00,45.3,27.8,30.47,ESE,118,0.0,0.0,50,0.00,,---,0.00,VWS V14.01,2013-05-02 02:36:00,
2013-05-01 22:41:00,45.3,27.8,30.47,ESE,118,0.0,0.0,50,0.00,,---,0.00,VWS V14.01,2013-05-02 02:41:00,
2013-05-01 22:46:00,45.1,27.6,30.47,ESE,118,0.0,0.0,50,0.00,,---,0.00,VWS V14.01,2013-05-02 02:46:00,
2013-05-01 22:52:00,44.6,27.1,30.47,ESE,118,0.0,0.0,50,0.00,,---,0.00,VWS V14.01,2013-05-02 02:52:00,
2013-05-01 22:57:00,44.4,27.0,30.47,ESE,118,0.0,0.0,50,0.00,,---,0.00,VWS V14.01,2013-05-02 02:57:00,
2013-05-01 23:03:00,44.2,27.3,30.47,ESE,118,0.0,0.0,51,0.00,,---,0.00,VWS V14.01,2013-05-02 03:03:00,
2013-05-01 23:09:00,44.1,27.1,30.47,ESE,118,0.0,0.0,51,0.00,,---,0.00,VWS V14.01,2013-05-02 03:09:00,
2013-05-01 23:14:00,43.9,26.9,30.47,ESE,118,0.0,0.0,51,0.00,,---,0.00,VWS V14.01,2013-05-02 03:14:00,
2013-05-01 23:20:00,43.7,26.8,30.47,ESE,118,0.0,0.0,51,0.00,,---,0.00,VWS V14.01,2013-05-02 03:20:00,
2013-05-01 23:25:00,43.9,26.9,30.47,ESE,118,0.0,0.0,51,0.00,,---,0.00,VWS V14.01,2013-05-02 03:25:00,
2013-05-01 23:31:00,43.7,26.8,30.47,ESE,118,0.0,0.0,51,0.00,,---,0.00,VWS V14.01,2013-05-02 03:31:00,
2013-05-01 23:37:00,43.9,27.4,30.47,ESE,118,0.0,0.0,52,0.00,,---,0.00,VWS V14.01,2013-05-02 03:37:00,
2013-05-01 23:43:00,44.1,27.6,30.47,ESE,118,0.0,0.0,52,0.00,,---,0.00,VWS V14.01,2013-05-02 03:43:00,
2013-05-01 23:49:00,44.1,27.6,30.47,ESE,118,0.0,0.0,52,0.00,,---,0.00,VWS V14.01,2013-05-02 03:49:00,
2013-05-01 23:55:00,43.7,27.2,30.47,ESE,118,0.0,0.0,52,0.00,,---,0.00,VWS V14.01,2013-05-02 03:55:00,